createdAt,value
2018-07-05T18:53:37.164Z,3.00
2018-07-05T18:56:16.414Z,3.23
2018-07-05T18:58:55.819Z,3.30
2018-07-05T19:01:35.155Z,3.53
2018-07-05T19:04:14.509Z,3.00
2018-07-05T19:06:54.241Z,3.80
2018-07-05T19:10:08.601Z,3.60
2018-07-05T19:13:17.133Z,4.07
2018-07-05T19:16:25.699Z,3.70
2018-07-05T19:19:39.944Z,3.47
2018-07-05T19:22:54.520Z,3.20
2018-07-05T19:26:08.885Z,2.90
2018-07-05T19:29:23.262Z,2.90
2018-07-05T19:32:37.601Z,2.50
2018-07-05T19:35:51.979Z,2.73
2018-07-05T19:39:06.471Z,2.73
2018-07-05T19:42:20.982Z,2.63
2018-07-05T19:45:35.562Z,2.40
2018-07-05T19:48:50.249Z,2.43
2018-07-05T19:52:04.727Z,2.80
2018-07-05T19:55:19.082Z,2.80
2018-07-05T19:58:33.421Z,3.00
2018-07-05T20:01:47.865Z,2.80
2018-07-05T20:05:02.250Z,3.17
2018-07-05T20:08:16.744Z,3.27
2018-07-05T20:11:31.131Z,3.23
2018-07-05T20:14:45.789Z,2.93
2018-07-05T20:18:00.180Z,3.07
2018-07-05T20:21:14.578Z,3.80
2018-07-05T20:24:28.938Z,3.10
2018-07-05T20:27:43.377Z,3.50
2018-07-05T20:30:57.749Z,3.33
2018-07-05T20:34:12.430Z,3.50
2018-07-05T20:37:26.789Z,3.50
2018-07-05T20:40:41.276Z,4.20
2018-07-05T20:43:55.702Z,4.03
2018-07-05T20:47:10.334Z,4.20
2018-07-05T20:50:24.931Z,3.83
2018-07-05T20:53:39.348Z,4.10
2018-07-05T20:56:53.797Z,4.00
2018-07-05T21:00:08.323Z,3.87
2018-07-05T21:03:22.782Z,4.20
2018-07-05T21:06:37.168Z,4.10
2018-07-05T21:09:51.649Z,4.27
2018-07-05T21:13:06.148Z,4.10
2018-07-05T21:16:20.571Z,4.10
2018-07-05T21:19:35.017Z,4.40
2018-07-05T21:22:49.349Z,4.10
2018-07-05T21:26:03.995Z,4.00
2018-07-05T21:29:18.786Z,4.27
2018-07-05T21:32:33.258Z,4.43
2018-07-05T21:35:47.696Z,4.57
2018-07-05T21:39:02.133Z,4.00
2018-07-05T21:42:16.551Z,3.83
2018-07-05T21:45:31.435Z,4.00
2018-07-05T21:48:46.266Z,4.60
2018-07-05T21:52:00.930Z,4.17
2018-07-05T21:55:15.485Z,4.37
2018-07-05T21:58:29.987Z,4.30
2018-07-05T22:01:44.487Z,4.53
2018-07-05T22:04:58.982Z,3.90
2018-07-05T22:08:13.486Z,4.10
2018-07-05T22:11:27.941Z,4.07
2018-07-05T22:14:36.420Z,4.30
2018-07-05T22:17:56.554Z,3.83
2018-07-05T22:21:15.409Z,4.33
2018-07-05T22:24:35.274Z,4.30
2018-07-05T22:27:55.380Z,4.00
2018-07-05T22:31:15.320Z,4.30
2018-07-05T22:34:29.885Z,4.10
2018-07-05T22:37:44.521Z,4.43
2018-07-05T22:40:59.023Z,4.57
2018-07-05T22:44:13.513Z,4.43
2018-07-05T22:47:28.153Z,4.60
2018-07-05T22:50:42.651Z,4.77
2018-07-05T22:53:57.146Z,4.73
2018-07-05T22:57:11.525Z,4.70
2018-07-05T23:00:25.929Z,4.50
2018-07-05T23:03:40.274Z,4.23
2018-07-05T23:06:54.654Z,4.43
2018-07-05T23:10:08.934Z,4.83
2018-07-05T23:13:24.492Z,4.83
2018-07-05T23:16:38.940Z,4.30
2018-07-05T23:19:53.453Z,4.77
2018-07-05T23:23:01.790Z,4.73
2018-07-05T23:26:16.353Z,4.57
2018-07-05T23:29:25.293Z,5.20
2018-07-05T23:32:39.808Z,4.70
2018-07-05T23:35:54.381Z,4.87
2018-07-05T23:39:08.734Z,4.40
2018-07-05T23:42:23.127Z,4.00
2018-07-05T23:45:37.438Z,5.10
2018-07-05T23:48:51.997Z,4.33
2018-07-05T23:52:06.465Z,4.20
2018-07-05T23:55:21.210Z,4.27
2018-07-05T23:58:35.722Z,4.10
